Time;durP1;ratioP1;P1;durP2;ratioP2;P2;SDS_P1;SDS_P2;PMS_P1;PMS_P2;Temp;Humidity;BMP_temperature;BMP_pressure;BME280_temperature;BME280_humidity;BME280_pressure;Samples;Min_cycle;Max_cycle;Signal;HPM_P1;HPM_P2
2024/04/24 05:04:23;;;;;;;17.53;8.67;;;;;;;;;;5210249;27;20548;-75
2024/04/24 05:06:49;;;;;;;20.33;8.93;;;;;;;;;;5212271;27;20437;-74
2024/04/24 05:09:15;;;;;;;20.53;8.93;;;;;;;;;;5211948;27;20449;-74
2024/04/24 05:11:45;;;;;;;18.73;9.03;;;;;;;;;;5238237;27;20597;-75
2024/04/24 05:14:11;;;;;;;29.63;13.53;;;;;;;;;;5237520;21;20568;-73
2024/04/24 05:16:37;;;;;;;22.10;9.27;;;;;;;;;;5210443;27;20524;-71
2024/04/24 05:19:03;;;;;;;21.43;10.03;;;;;;;;;;5191179;27;21048;-71
2024/04/24 05:21:29;;;;;;;20.50;9.00;;;;;;;;;;5183285;27;20616;-71
2024/04/24 05:23:55;;;;;;;24.77;8.30;;;;;;;;;;5210148;27;20461;-73
2024/04/24 05:29:10;;;;;;;14.40;7.60;;;;;;;;;;5209840;27;20516;-72
2024/04/24 05:31:36;;;;;;;13.70;8.10;;;;;;;;;;5210175;27;20510;-73
2024/04/24 05:34:02;;;;;;;26.87;8.50;;;;;;;;;;5211405;27;20465;-71
2024/04/24 05:36:28;;;;;;;14.87;8.60;;;;;;;;;;5212070;27;20501;-73
2024/04/24 05:38:54;;;;;;;16.53;8.43;;;;;;;;;;5180763;27;20457;-74
2024/04/24 05:41:20;;;;;;;16.23;8.57;;;;;;;;;;5209767;27;20473;-71
2024/04/24 05:43:46;;;;;;;16.97;9.37;;;;;;;;;;5181671;27;20889;-73
2024/04/24 05:46:12;;;;;;;16.83;8.50;;;;;;;;;;5202711;27;20777;-72
2024/04/24 05:48:38;;;;;;;14.30;8.10;;;;;;;;;;5117623;27;20579;-73
2024/04/24 05:51:05;;;;;;;17.40;9.03;;;;;;;;;;5146294;27;20507;-73
2024/04/24 05:53:31;;;;;;;21.20;8.50;;;;;;;;;;5117616;27;20479;-71
2024/04/24 05:55:57;;;;;;;14.00;7.53;;;;;;;;;;5161131;27;20529;-72
2024/04/24 05:58:23;;;;;;;28.33;7.80;;;;;;;;;;5209414;27;20498;-71
2024/04/24 06:00:49;;;;;;;16.63;7.67;;;;;;;;;;5211747;27;20600;-73
2024/04/24 06:03:15;;;;;;;14.10;6.90;;;;;;;;;;5155806;27;20531;-72
2024/04/24 06:05:41;;;;;;;13.90;8.40;;;;;;;;;;5167573;27;20588;-73
2024/04/24 06:08:07;;;;;;;13.37;7.10;;;;;;;;;;5144621;27;20467;-76
2024/04/24 06:10:33;;;;;;;19.27;7.50;;;;;;;;;;5148354;27;20570;-72
2024/04/24 06:12:59;;;;;;;12.30;7.50;;;;;;;;;;5166836;27;21082;-73
2024/04/24 06:15:24;;;;;;;14.90;7.30;;;;;;;;;;5172188;27;20482;-73
2024/04/24 06:17:50;;;;;;;10.97;6.23;;;;;;;;;;5160917;27;20972;-72
2024/04/24 06:20:17;;;;;;;12.10;7.00;;;;;;;;;;5128601;27;20491;-72
2024/04/24 06:22:43;;;;;;;15.10;8.13;;;;;;;;;;5147010;27;20467;-71
2024/04/24 06:25:10;;;;;;;10.70;6.13;;;;;;;;;;5146722;27;20515;-72
2024/04/24 06:27:36;;;;;;;13.00;7.13;;;;;;;;;;5146325;27;20456;-72
2024/04/24 06:30:02;;;;;;;17.90;7.03;;;;;;;;;;5155888;27;21103;-71
2024/04/24 06:32:28;;;;;;;11.03;6.30;;;;;;;;;;5177116;27;20463;-72
2024/04/24 06:34:54;;;;;;;11.30;6.20;;;;;;;;;;5176659;27;20483;-72
2024/04/24 06:37:20;;;;;;;12.70;6.60;;;;;;;;;;5148511;27;20470;-73
2024/04/24 06:39:46;;;;;;;14.87;6.60;;;;;;;;;;5148273;27;20587;-72
2024/04/24 06:42:12;;;;;;;15.60;6.97;;;;;;;;;;5177449;27;20908;-71
2024/04/24 06:44:38;;;;;;;11.97;6.73;;;;;;;;;;5159410;27;20533;-72
2024/04/24 06:47:07;;;;;;;10.73;7.50;;;;;;;;;;5129769;27;20516;-72
2024/04/24 06:49:36;;;;;;;16.60;7.00;;;;;;;;;;5148026;27;20486;-72
2024/04/24 06:52:05;;;;;;;16.37;8.30;;;;;;;;;;5171983;27;20466;-73
2024/04/24 06:54:31;;;;;;;11.40;7.23;;;;;;;;;;5176800;27;20498;-72
2024/04/24 06:56:57;;;;;;;11.63;7.93;;;;;;;;;;5176589;27;20459;-71
2024/04/24 06:59:23;;;;;;;14.57;8.53;;;;;;;;;;5176143;27;20475;-72
2024/04/24 07:01:49;;;;;;;16.47;10.03;;;;;;;;;;5176992;27;20993;-71
2024/04/24 07:04:15;;;;;;;12.13;8.47;;;;;;;;;;5138596;27;20535;-71
2024/04/24 07:06:41;;;;;;;17.37;9.33;;;;;;;;;;5177883;27;20591;-70
2024/04/24 07:09:07;;;;;;;16.70;8.97;;;;;;;;;;5155326;27;21220;-70
2024/04/24 07:11:33;;;;;;;11.50;8.03;;;;;;;;;;5148947;27;20474;-72
2024/04/24 07:13:59;;;;;;;17.90;8.17;;;;;;;;;;5181199;27;20585;-72
2024/04/24 07:16:25;;;;;;;16.93;8.47;;;;;;;;;;5182307;27;20486;-68
2024/04/24 07:18:51;;;;;;;15.97;9.53;;;;;;;;;;5137080;27;20476;-72
2024/04/24 07:21:17;;;;;;;18.70;9.50;;;;;;;;;;5172664;27;20539;-72
2024/04/24 07:23:43;;;;;;;13.70;9.27;;;;;;;;;;5178117;27;20478;-74
2024/04/24 07:26:09;;;;;;;14.73;9.27;;;;;;;;;;5185688;27;20469;-75
2024/04/24 07:28:35;;;;;;;16.80;9.07;;;;;;;;;;5207891;27;20445;-74
2024/04/24 07:31:01;;;;;;;18.70;9.23;;;;;;;;;;5184931;27;20802;-75
2024/04/24 07:33:27;;;;;;;20.93;9.97;;;;;;;;;;5146213;27;20547;-76
2024/04/24 07:35:57;;;;;;;20.80;11.03;;;;;;;;;;5144102;27;20492;-75
2024/04/24 07:38:23;;;;;;;25.03;10.73;;;;;;;;;;5143935;27;20568;-75
2024/04/24 07:40:49;;;;;;;17.73;11.80;;;;;;;;;;5143969;27;20851;-76
2024/04/24 07:43:15;;;;;;;23.47;12.70;;;;;;;;;;5144424;27;20800;-74
2024/04/24 07:45:42;;;;;;;23.60;12.60;;;;;;;;;;5145257;27;20380;-73
2024/04/24 07:48:08;;;;;;;24.25;14.18;;;;;;;;;;5155298;27;20400;-73
2024/04/24 07:50:34;;;;;;;19.70;11.70;;;;;;;;;;5186933;27;20237;-73
2024/04/24 07:53:03;;;;;;;20.70;12.37;;;;;;;;;;5170317;27;20522;-73
2024/04/24 07:55:29;;;;;;;19.40;11.30;;;;;;;;;;5173040;27;20568;-73
2024/04/24 07:57:55;;;;;;;19.50;11.50;;;;;;;;;;5174357;27;20523;-73
2024/04/24 08:00:21;;;;;;;22.70;12.63;;;;;;;;;;5176043;27;20535;-74
2024/04/24 08:02:47;;;;;;;18.50;11.20;;;;;;;;;;5151470;27;20472;-74
2024/04/24 08:05:13;;;;;;;17.90;11.10;;;;;;;;;;5155103;27;20596;-73
2024/04/24 08:07:39;;;;;;;15.27;10.30;;;;;;;;;;5184213;27;20477;-73
2024/04/24 08:10:09;;;;;;;20.83;10.90;;;;;;;;;;5153238;27;20534;-73
2024/04/24 08:12:35;;;;;;;26.13;11.47;;;;;;;;;;5164799;27;20468;-73
2024/04/24 08:15:02;;;;;;;17.93;9.77;;;;;;;;;;5165649;27;20534;-72
2024/04/24 08:17:28;;;;;;;21.47;11.53;;;;;;;;;;5174333;27;20450;-73
2024/04/24 08:19:54;;;;;;;21.60;10.77;;;;;;;;;;5141383;27;20480;-74
2024/04/24 08:22:19;;;;;;;17.00;8.80;;;;;;;;;;5162454;27;20521;-74
2024/04/24 08:24:45;;;;;;;19.73;11.10;;;;;;;;;;5158181;27;20477;-72
2024/04/24 08:27:11;;;;;;;13.53;9.13;;;;;;;;;;5147008;27;20484;-72
2024/04/24 08:29:37;;;;;;;18.83;11.27;;;;;;;;;;5144689;27;20486;-73
2024/04/24 08:32:03;;;;;;;14.50;9.83;;;;;;;;;;5174368;27;21191;-72
2024/04/24 08:34:29;;;;;;;17.27;9.73;;;;;;;;;;5167527;27;20526;-74
2024/04/24 08:36:55;;;;;;;22.33;10.17;;;;;;;;;;5156808;27;20561;-72
2024/04/24 08:39:22;;;;;;;16.20;10.10;;;;;;;;;;5172927;27;20594;-72
2024/04/24 08:41:48;;;;;;;18.40;9.80;;;;;;;;;;5165904;27;21015;-72
2024/04/24 08:44:14;;;;;;;17.37;9.93;;;;;;;;;;5170345;27;20557;-74
2024/04/24 08:46:40;;;;;;;16.83;10.20;;;;;;;;;;5175445;27;20474;-72
2024/04/24 08:49:07;;;;;;;16.10;9.70;;;;;;;;;;5165657;27;20492;-71
2024/04/24 08:51:39;;;;;;;15.57;9.13;;;;;;;;;;5165893;27;20536;-73
2024/04/24 08:54:08;;;;;;;15.53;8.20;;;;;;;;;;5163782;27;20484;-72
2024/04/24 08:56:36;;;;;;;12.13;8.43;;;;;;;;;;5183799;27;20469;-71
2024/04/24 08:59:04;;;;;;;15.00;10.07;;;;;;;;;;5187219;27;21074;-72
2024/04/24 09:01:32;;;;;;;14.30;9.03;;;;;;;;;;5142129;27;20999;-71
2024/04/24 09:04:04;;;;;;;12.77;9.00;;;;;;;;;;5141399;27;20471;-71
2024/04/24 09:06:30;;;;;;;16.93;10.57;;;;;;;;;;5173713;27;20478;-72
2024/04/24 09:08:58;;;;;;;13.03;8.03;;;;;;;;;;5172795;27;20611;-71
2024/04/24 09:11:24;;;;;;;14.33;8.67;;;;;;;;;;5173232;27;20462;-72
2024/04/24 09:13:50;;;;;;;16.27;9.97;;;;;;;;;;5165531;27;20480;-71
2024/04/24 09:16:17;;;;;;;12.60;8.93;;;;;;;;;;5170579;27;20527;-71
2024/04/24 09:18:58;;;;;;;16.33;9.70;;;;;;;;;;5171070;27;20465;-71
2024/04/24 09:21:24;;;;;;;16.03;8.90;;;;;;;;;;5179681;27;20461;-72
2024/04/24 09:23:50;;;;;;;15.67;9.00;;;;;;;;;;5182526;27;21344;-72
2024/04/24 09:26:17;;;;;;;14.37;8.77;;;;;;;;;;5158995;27;20475;-71
2024/04/24 09:28:45;;;;;;;13.63;8.50;;;;;;;;;;5139792;27;20517;-71
2024/04/24 09:31:11;;;;;;;23.17;12.37;;;;;;;;;;5167462;27;20474;-71
2024/04/24 09:33:37;;;;;;;20.00;11.70;;;;;;;;;;5175285;27;20474;-71
2024/04/24 09:36:03;;;;;;;18.43;9.17;;;;;;;;;;5176417;27;20560;-71
2024/04/24 09:38:30;;;;;;;13.93;9.00;;;;;;;;;;5170960;27;20845;-72
2024/04/24 09:40:58;;;;;;;16.60;11.00;;;;;;;;;;5180123;27;20489;-71
2024/04/24 09:43:26;;;;;;;15.97;10.47;;;;;;;;;;5189498;27;20469;-71
2024/04/24 09:45:54;;;;;;;15.50;9.33;;;;;;;;;;5177001;27;20474;-72
2024/04/24 09:48:20;;;;;;;17.40;10.57;;;;;;;;;;5152474;27;20817;-71
2024/04/24 09:50:47;;;;;;;18.53;10.83;;;;;;;;;;5165748;27;20478;-71
2024/04/24 09:53:20;;;;;;;15.20;10.03;;;;;;;;;;5150970;27;20599;-71
2024/04/24 09:55:52;;;;;;;17.70;10.10;;;;;;;;;;5142392;27;20799;-72
2024/04/24 09:58:20;;;;;;;23.13;11.33;;;;;;;;;;5154380;27;20587;-71
2024/04/24 10:00:46;;;;;;;41.47;12.07;;;;;;;;;;5173715;27;20528;-72
2024/04/24 10:03:13;;;;;;;22.40;11.67;;;;;;;;;;5167372;27;20531;-72
2024/04/24 10:05:40;;;;;;;20.90;11.60;;;;;;;;;;5176915;27;20511;-72
2024/04/24 10:08:07;;;;;;;18.93;11.40;;;;;;;;;;5176829;27;20474;-72
2024/04/24 10:10:35;;;;;;;16.60;10.10;;;;;;;;;;5206434;27;20472;-72
2024/04/24 10:13:02;;;;;;;17.07;10.07;;;;;;;;;;5180045;27;20838;-72
2024/04/24 10:15:30;;;;;;;18.40;11.60;;;;;;;;;;5146058;27;20934;-72
2024/04/24 10:17:57;;;;;;;17.77;10.80;;;;;;;;;;5115813;27;20447;-72
2024/04/24 10:20:23;;;;;;;16.73;9.23;;;;;;;;;;5144484;27;20464;-72
2024/04/24 10:22:50;;;;;;;16.73;9.77;;;;;;;;;;5160724;27;20582;-72
2024/04/24 10:25:19;;;;;;;19.83;10.50;;;;;;;;;;5192265;27;20473;-71
2024/04/24 10:27:47;;;;;;;21.43;11.03;;;;;;;;;;5208933;27;20506;-71
2024/04/24 10:30:14;;;;;;;19.67;12.50;;;;;;;;;;5200833;27;20465;-71
2024/04/24 10:32:40;;;;;;;19.77;10.50;;;;;;;;;;5168275;27;20468;-72
2024/04/24 10:35:06;;;;;;;17.63;10.70;;;;;;;;;;5146523;27;20476;-72
2024/04/24 10:37:32;;;;;;;19.73;11.63;;;;;;;;;;5144056;27;20508;-71
2024/04/24 10:40:00;;;;;;;16.67;11.10;;;;;;;;;;5152038;27;21015;-71
2024/04/24 10:42:26;;;;;;;18.30;11.80;;;;;;;;;;5173716;27;20459;-72
2024/04/24 10:44:53;;;;;;;15.03;10.10;;;;;;;;;;5176211;27;20463;-71
2024/04/24 10:47:20;;;;;;;14.60;10.30;;;;;;;;;;5176384;27;20518;-71
2024/04/24 10:49:58;;;;;;;21.13;11.43;;;;;;;;;;5176785;27;20518;-71
2024/04/24 10:52:25;;;;;;;21.67;11.10;;;;;;;;;;5177729;27;20512;-71
2024/04/24 10:54:53;;;;;;;19.40;11.90;;;;;;;;;;5182279;27;20509;-72
2024/04/24 10:57:32;;;;;;;20.23;12.53;;;;;;;;;;5198870;27;20474;-72
2024/04/24 11:00:10;;;;;;;25.73;11.30;;;;;;;;;;5197063;27;20500;-71
2024/04/24 11:02:36;;;;;;;15.53;10.70;;;;;;;;;;5197239;27;20430;-71
2024/04/24 11:05:02;;;;;;;17.13;10.90;;;;;;;;;;5199944;27;20478;-71
2024/04/24 11:07:28;;;;;;;20.97;11.47;;;;;;;;;;5152190;27;21042;-72
2024/04/24 11:09:54;;;;;;;17.33;10.40;;;;;;;;;;5189115;27;20462;-72
2024/04/24 11:12:21;;;;;;;21.00;11.73;;;;;;;;;;5185414;27;20446;-72
2024/04/24 11:14:49;;;;;;;17.90;11.43;;;;;;;;;;5216689;22;21038;-74
2024/04/24 11:17:16;;;;;;;16.60;10.40;;;;;;;;;;5242067;27;20451;-74
2024/04/24 11:19:42;;;;;;;13.77;8.77;;;;;;;;;;5212450;27;20500;-75
2024/04/24 11:22:08;;;;;;;13.90;9.00;;;;;;;;;;5242502;27;20542;-75
2024/04/24 11:24:34;;;;;;;14.43;8.17;;;;;;;;;;5230295;27;21113;-75
2024/04/24 11:27:00;;;;;;;16.63;8.20;;;;;;;;;;5209996;27;20524;-75
2024/04/24 11:29:26;;;;;;;13.23;8.37;;;;;;;;;;5208772;27;20449;-75
2024/04/24 11:31:53;;;;;;;9.97;7.23;;;;;;;;;;5180640;27;20606;-76
2024/04/24 11:34:20;;;;;;;11.90;7.10;;;;;;;;;;5187228;27;20482;-74
2024/04/24 11:36:46;;;;;;;12.20;6.50;;;;;;;;;;5183907;27;20486;-73
2024/04/24 11:39:12;;;;;;;13.63;7.13;;;;;;;;;;5176025;27;20564;-73
2024/04/24 11:41:39;;;;;;;9.90;6.40;;;;;;;;;;5148131;27;20605;-72
2024/04/24 11:44:05;;;;;;;9.40;6.43;;;;;;;;;;5184112;27;20476;-75
2024/04/24 11:46:31;;;;;;;10.90;6.73;;;;;;;;;;5188609;27;20888;-73
2024/04/24 11:49:00;;;;;;;11.27;6.00;;;;;;;;;;5206327;27;20842;-73
2024/04/24 11:51:27;;;;;;;8.10;5.30;;;;;;;;;;5184247;27;20469;-73
2024/04/24 11:53:53;;;;;;;6.67;5.53;;;;;;;;;;5208956;27;20469;-72
2024/04/24 11:56:25;;;;;;;10.93;5.60;;;;;;;;;;5165022;27;20642;-72
2024/04/24 11:58:51;;;;;;;6.77;4.90;;;;;;;;;;5209084;27;20473;-72
2024/04/24 12:01:17;;;;;;;7.60;5.37;;;;;;;;;;5208432;27;20540;-73
2024/04/24 12:03:45;;;;;;;6.70;5.20;;;;;;;;;;5170722;27;20469;-72
2024/04/24 12:06:11;;;;;;;6.17;4.20;;;;;;;;;;5199397;27;20593;-71
2024/04/24 12:08:37;;;;;;;5.23;4.50;;;;;;;;;;5204405;27;21381;-69
2024/04/24 12:11:03;;;;;;;7.93;4.63;;;;;;;;;;5208609;27;21006;-70
2024/04/24 12:13:30;;;;;;;6.00;4.37;;;;;;;;;;5187233;27;21152;-69
2024/04/24 12:16:00;;;;;;;5.30;4.23;;;;;;;;;;5186170;27;21015;-72
2024/04/24 12:18:26;;;;;;;8.30;4.70;;;;;;;;;;5217261;27;20472;-74
2024/04/24 12:20:53;;;;;;;9.60;5.87;;;;;;;;;;5222090;27;20473;-73
2024/04/24 12:23:19;;;;;;;4.90;4.03;;;;;;;;;;5207745;27;20873;-73
2024/04/24 12:25:45;;;;;;;6.50;4.40;;;;;;;;;;5242487;27;20520;-73
2024/04/24 12:28:11;;;;;;;7.37;4.20;;;;;;;;;;5208886;27;20522;-73
2024/04/24 12:30:37;;;;;;;6.80;4.80;;;;;;;;;;5176577;27;20575;-73
2024/04/24 12:33:03;;;;;;;6.67;4.67;;;;;;;;;;5175934;27;20462;-73
2024/04/24 12:35:29;;;;;;;5.50;3.93;;;;;;;;;;5182432;27;20538;-72
2024/04/24 12:37:55;;;;;;;3.63;3.10;;;;;;;;;;5185343;27;20900;-74
2024/04/24 12:40:21;;;;;;;6.73;4.07;;;;;;;;;;5208182;27;20457;-73
2024/04/24 12:42:47;;;;;;;5.77;3.63;;;;;;;;;;5197429;27;20487;-74
2024/04/24 12:45:13;;;;;;;5.37;3.77;;;;;;;;;;5198185;27;20477;-72
2024/04/24 12:47:39;;;;;;;4.67;3.33;;;;;;;;;;5186778;27;20483;-74
2024/04/24 12:50:05;;;;;;;6.60;4.00;;;;;;;;;;5175165;27;20601;-75
2024/04/24 12:52:31;;;;;;;5.23;3.33;;;;;;;;;;5176067;27;20556;-74
2024/04/24 12:54:57;;;;;;;4.83;3.40;;;;;;;;;;5175284;27;20498;-74
2024/04/24 12:57:23;;;;;;;6.70;3.57;;;;;;;;;;5174350;27;20458;-74
2024/04/24 12:59:49;;;;;;;9.37;4.03;;;;;;;;;;5175499;27;20458;-74
2024/04/24 13:02:15;;;;;;;5.90;3.43;;;;;;;;;;5176263;27;20992;-73
2024/04/24 13:04:41;;;;;;;5.27;3.10;;;;;;;;;;5175920;27;20486;-74
2024/04/24 13:07:07;;;;;;;3.90;3.63;;;;;;;;;;5177139;27;21037;-73
2024/04/24 13:09:32;;;;;;;5.03;3.40;;;;;;;;;;5178353;27;20446;-72
2024/04/24 13:11:58;;;;;;;3.97;3.37;;;;;;;;;;5178222;27;21180;-74
2024/04/24 13:14:25;;;;;;;4.70;3.77;;;;;;;;;;5180070;27;20897;-73
2024/04/24 13:16:51;;;;;;;5.40;3.50;;;;;;;;;;5154137;27;20521;-72
2024/04/24 13:19:17;;;;;;;6.33;3.80;;;;;;;;;;5190295;27;20538;-73
2024/04/24 13:21:42;;;;;;;7.43;4.00;;;;;;;;;;5198914;27;20477;-74
2024/04/24 13:24:10;;;;;;;4.50;4.20;;;;;;;;;;5190816;27;20594;-73
2024/04/24 13:26:36;;;;;;;8.27;4.13;;;;;;;;;;5178070;27;20454;-73
2024/04/24 13:29:02;;;;;;;8.57;4.43;;;;;;;;;;5186679;27;20460;-73
2024/04/24 13:31:32;;;;;;;7.07;4.70;;;;;;;;;;5203116;27;20586;-74
2024/04/24 13:33:58;;;;;;;5.43;4.80;;;;;;;;;;5209900;27;20852;-72
2024/04/24 13:36:24;;;;;;;8.17;5.07;;;;;;;;;;5182176;27;20482;-72
2024/04/24 13:38:52;;;;;;;7.10;4.40;;;;;;;;;;5177936;27;20454;-73
2024/04/24 13:41:19;;;;;;;7.97;5.27;;;;;;;;;;5177047;27;20498;-73
2024/04/24 13:43:47;;;;;;;7.50;4.93;;;;;;;;;;5177503;27;20571;-74
2024/04/24 13:46:14;;;;;;;9.73;6.33;;;;;;;;;;5177668;27;20507;-74
2024/04/24 13:48:40;;;;;;;8.40;6.10;;;;;;;;;;5178023;27;21109;-74
2024/04/24 13:51:07;;;;;;;8.53;6.17;;;;;;;;;;5188339;27;21031;-74
2024/04/24 13:53:33;;;;;;;8.73;5.90;;;;;;;;;;5177193;27;20443;-77
2024/04/24 13:56:00;;;;;;;10.97;7.23;;;;;;;;;;5203446;27;20588;-72
2024/04/24 13:58:27;;;;;;;7.90;5.60;;;;;;;;;;5201684;27;21008;-71
2024/04/24 14:00:53;;;;;;;13.10;5.10;;;;;;;;;;5203188;27;20476;-72
2024/04/24 14:03:20;;;;;;;7.33;4.43;;;;;;;;;;5209408;27;20535;-72
2024/04/24 14:05:49;;;;;;;6.03;4.33;;;;;;;;;;5210136;27;20532;-71
2024/04/24 14:08:15;;;;;;;5.73;4.50;;;;;;;;;;5210300;27;20501;-72
2024/04/24 14:10:42;;;;;;;5.57;4.60;;;;;;;;;;5210197;27;21064;-71
2024/04/24 14:13:08;;;;;;;10.43;4.63;;;;;;;;;;5210397;27;20548;-70
2024/04/24 14:15:34;;;;;;;4.87;3.63;;;;;;;;;;5210348;27;20539;-75
2024/04/24 14:18:00;;;;;;;4.53;3.30;;;;;;;;;;5208645;27;20520;-70
2024/04/24 14:20:26;;;;;;;6.10;3.50;;;;;;;;;;5210399;27;20640;-70
2024/04/24 14:22:52;;;;;;;5.93;4.30;;;;;;;;;;5210475;27;20565;-70
2024/04/24 14:25:18;;;;;;;6.00;3.63;;;;;;;;;;5209377;27;20464;-71
2024/04/24 14:27:45;;;;;;;5.43;3.03;;;;;;;;;;5203422;27;20519;-70
2024/04/24 14:30:11;;;;;;;5.10;3.67;;;;;;;;;;5224987;27;20475;-70
2024/04/24 14:32:37;;;;;;;8.67;3.17;;;;;;;;;;5243659;27;20502;-71
2024/04/24 14:35:04;;;;;;;5.13;3.27;;;;;;;;;;5242779;27;20471;-70
2024/04/24 14:37:31;;;;;;;4.63;3.13;;;;;;;;;;5236805;27;20584;-71
2024/04/24 14:39:57;;;;;;;5.23;3.60;;;;;;;;;;5210699;27;20476;-71
2024/04/24 14:42:23;;;;;;;4.27;2.60;;;;;;;;;;5208795;27;20465;-70
2024/04/24 14:44:49;;;;;;;3.10;2.57;;;;;;;;;;5209168;27;20473;-71
2024/04/24 14:47:19;;;;;;;2.77;2.57;;;;;;;;;;5209424;27;20512;-74
2024/04/24 14:49:45;;;;;;;3.37;2.80;;;;;;;;;;5209447;27;21036;-70
2024/04/24 14:52:13;;;;;;;5.70;2.93;;;;;;;;;;5209661;27;21017;-70
2024/04/24 14:54:39;;;;;;;5.83;2.60;;;;;;;;;;5204284;27;20919;-71
2024/04/24 14:57:08;;;;;;;4.33;3.20;;;;;;;;;;5211315;27;20997;-69
2024/04/24 14:59:37;;;;;;;3.17;2.47;;;;;;;;;;5210485;27;20988;-70
2024/04/24 15:02:03;;;;;;;3.30;3.10;;;;;;;;;;5210704;27;20473;-70
2024/04/24 15:04:29;;;;;;;2.83;2.50;;;;;;;;;;5211115;27;20732;-69
2024/04/24 15:07:10;;;;;;;5.47;2.47;;;;;;;;;;5232628;27;20464;-70
2024/04/24 15:09:37;;;;;;;5.03;2.87;;;;;;;;;;5231889;27;21004;-71
2024/04/24 15:12:03;;;;;;;2.93;2.77;;;;;;;;;;5209509;27;20477;-70
2024/04/24 15:14:29;;;;;;;4.00;3.03;;;;;;;;;;5209526;27;21031;-70
2024/04/24 15:16:55;;;;;;;4.80;3.43;;;;;;;;;;5206454;27;20582;-72
2024/04/24 15:19:21;;;;;;;7.90;2.93;;;;;;;;;;5194271;27;20527;-73
2024/04/24 15:21:47;;;;;;;4.60;2.77;;;;;;;;;;5198913;27;20470;-72
2024/04/24 15:24:13;;;;;;;3.40;2.60;;;;;;;;;;5209707;27;20837;-72
2024/04/24 15:26:39;;;;;;;2.53;2.33;;;;;;;;;;5209232;27;20513;-71
2024/04/24 15:29:05;;;;;;;8.50;3.03;;;;;;;;;;5204184;27;20482;-70
2024/04/24 15:31:32;;;;;;;3.23;2.37;;;;;;;;;;5209820;27;20822;-71
2024/04/24 15:33:58;;;;;;;3.80;2.73;;;;;;;;;;5209301;27;20461;-71
2024/04/24 15:36:24;;;;;;;2.77;2.33;;;;;;;;;;5186023;27;20576;-72
2024/04/24 15:38:50;;;;;;;5.63;2.70;;;;;;;;;;5193143;27;21231;-70
2024/04/24 15:41:16;;;;;;;3.40;2.20;;;;;;;;;;5180483;27;20461;-71
2024/04/24 15:43:42;;;;;;;3.73;2.20;;;;;;;;;;5208803;27;20521;-71
2024/04/24 15:46:08;;;;;;;3.33;1.93;;;;;;;;;;5208473;27;20472;-71
2024/04/24 15:48:35;;;;;;;7.50;3.13;;;;;;;;;;5203037;27;20480;-70
2024/04/24 15:51:00;;;;;;;6.03;2.60;;;;;;;;;;5206852;27;20461;-71
2024/04/24 15:53:26;;;;;;;4.57;2.83;;;;;;;;;;5207836;27;20473;-71
2024/04/24 15:55:52;;;;;;;2.10;1.77;;;;;;;;;;5180869;27;20485;-70
2024/04/24 15:58:18;;;;;;;1.37;1.30;;;;;;;;;;5209458;27;21064;-70
2024/04/24 16:00:45;;;;;;;1.93;1.60;;;;;;;;;;5204962;27;20465;-70
2024/04/24 16:03:11;;;;;;;2.00;1.53;;;;;;;;;;5198692;27;20863;-71
2024/04/24 16:05:36;;;;;;;1.50;1.40;;;;;;;;;;5202844;27;20469;-70
2024/04/24 16:08:02;;;;;;;3.47;1.60;;;;;;;;;;5209422;27;20449;-71
2024/04/24 16:10:28;;;;;;;1.60;1.53;;;;;;;;;;5208040;27;20477;-71
2024/04/24 16:12:55;;;;;;;1.50;1.40;;;;;;;;;;5205947;27;21097;-70
2024/04/24 16:15:21;;;;;;;1.70;1.63;;;;;;;;;;5203893;27;20472;-69
2024/04/24 16:17:47;;;;;;;2.10;1.97;;;;;;;;;;5208024;27;20829;-69
2024/04/24 16:20:13;;;;;;;2.20;1.93;;;;;;;;;;5209433;27;20512;-70
2024/04/24 16:22:39;;;;;;;3.43;1.57;;;;;;;;;;5210037;27;20469;-71
2024/04/24 16:25:05;;;;;;;1.60;1.50;;;;;;;;;;5208370;27;20571;-71
2024/04/24 16:27:31;;;;;;;2.20;2.00;;;;;;;;;;5208221;27;20460;-72
2024/04/24 16:29:58;;;;;;;4.97;1.77;;;;;;;;;;5207239;27;21197;-70
2024/04/24 16:32:24;;;;;;;3.73;2.10;;;;;;;;;;5207410;27;20473;-74
2024/04/24 16:34:50;;;;;;;3.13;1.87;;;;;;;;;;5178715;27;20476;-74
2024/04/24 16:37:16;;;;;;;3.60;2.03;;;;;;;;;;5208026;27;20930;-74
2024/04/24 16:39:42;;;;;;;1.97;1.67;;;;;;;;;;5208677;27;20453;-74
2024/04/24 16:42:08;;;;;;;1.90;1.80;;;;;;;;;;5210640;27;20453;-74
2024/04/24 16:44:34;;;;;;;3.13;1.87;;;;;;;;;;5204454;27;20522;-73
2024/04/24 16:47:00;;;;;;;1.90;1.63;;;;;;;;;;5178406;27;20481;-73
2024/04/24 16:49:32;;;;;;;2.03;1.80;;;;;;;;;;5178433;27;20446;-73
2024/04/24 16:51:58;;;;;;;2.03;1.77;;;;;;;;;;5180482;27;20573;-74
2024/04/24 16:54:23;;;;;;;2.73;1.70;;;;;;;;;;5178613;27;21061;-74
2024/04/24 16:56:49;;;;;;;1.60;1.50;;;;;;;;;;5178982;27;20458;-74
2024/04/24 16:59:15;;;;;;;2.00;1.90;;;;;;;;;;5181700;27;20850;-74
2024/04/24 17:01:41;;;;;;;2.17;1.83;;;;;;;;;;5179213;27;20532;-73
2024/04/24 17:04:08;;;;;;;2.10;1.80;;;;;;;;;;5179176;27;20519;-74
2024/04/24 17:06:34;;;;;;;3.70;1.90;;;;;;;;;;5177259;27;21172;-74
2024/04/24 17:09:00;;;;;;;2.20;1.73;;;;;;;;;;5178218;27;20623;-75
2024/04/24 17:11:26;;;;;;;3.30;2.03;;;;;;;;;;5179106;27;20458;-74
2024/04/24 17:13:53;;;;;;;2.67;1.90;;;;;;;;;;5199345;27;20513;-74
2024/04/24 17:16:19;;;;;;;3.30;1.60;;;;;;;;;;5255160;22;20504;-69
2024/04/24 17:18:45;;;;;;;11.33;1.80;;;;;;;;;;5237174;27;22191;-70
2024/04/24 17:21:11;;;;;;;2.90;1.80;;;;;;;;;;5226609;27;21094;-71
2024/04/24 17:23:37;;;;;;;3.47;2.10;;;;;;;;;;5244831;27;20483;-70
2024/04/24 17:26:03;;;;;;;2.57;1.73;;;;;;;;;;5220901;27;20530;-70
2024/04/24 17:28:29;;;;;;;1.87;1.77;;;;;;;;;;5199166;27;20518;-70
2024/04/24 17:30:55;;;;;;;2.40;1.90;;;;;;;;;;5202447;27;20473;-69
2024/04/24 17:33:23;;;;;;;2.20;1.90;;;;;;;;;;5186681;27;20462;-73
2024/04/24 17:35:53;;;;;;;7.50;2.60;;;;;;;;;;5176497;27;20482;-71
2024/04/24 17:38:19;;;;;;;3.40;3.03;;;;;;;;;;5182021;27;20513;-72
2024/04/24 17:40:45;;;;;;;5.30;2.93;;;;;;;;;;5186854;27;20466;-70
2024/04/24 17:43:11;;;;;;;3.87;2.30;;;;;;;;;;5185107;27;20544;-70
2024/04/24 17:45:37;;;;;;;2.70;2.07;;;;;;;;;;5178759;27;20478;-69
2024/04/24 17:48:03;;;;;;;4.53;3.37;;;;;;;;;;5177072;27;20518;-70
2024/04/24 17:50:29;;;;;;;2.73;2.20;;;;;;;;;;5178803;27;20825;-71
2024/04/24 17:52:57;;;;;;;4.90;2.43;;;;;;;;;;5175999;27;20523;-71
2024/04/24 17:55:23;;;;;;;2.20;2.10;;;;;;;;;;5176481;27;20615;-72
2024/04/24 17:57:50;;;;;;;8.50;3.10;;;;;;;;;;5178048;27;20840;-70
2024/04/24 18:00:16;;;;;;;3.50;2.47;;;;;;;;;;5177687;27;20519;-70
2024/04/24 18:02:42;;;;;;;3.23;2.17;;;;;;;;;;5193636;27;20473;-71
2024/04/24 18:05:08;;;;;;;7.07;3.20;;;;;;;;;;5191681;27;20492;-69
2024/04/24 18:07:34;;;;;;;3.93;3.07;;;;;;;;;;5189693;27;20583;-69
2024/04/24 18:10:00;;;;;;;2.93;2.40;;;;;;;;;;5177504;27;20462;-71
2024/04/24 18:12:26;;;;;;;3.47;2.57;;;;;;;;;;5178189;27;20450;-70
2024/04/24 18:14:54;;;;;;;4.37;2.83;;;;;;;;;;5177003;27;20478;-70
2024/04/24 18:17:20;;;;;;;9.83;3.87;;;;;;;;;;5177884;27;20477;-69
2024/04/24 18:19:46;;;;;;;10.07;3.63;;;;;;;;;;5179576;27;20966;-69
2024/04/24 18:22:12;;;;;;;8.67;3.27;;;;;;;;;;5178033;27;20507;-70
2024/04/24 18:24:38;;;;;;;5.60;2.63;;;;;;;;;;5179180;27;20467;-71
2024/04/24 18:27:04;;;;;;;7.00;3.43;;;;;;;;;;5198031;27;20473;-71
2024/04/24 18:29:30;;;;;;;6.80;3.37;;;;;;;;;;5210670;27;20550;-69
2024/04/24 18:31:56;;;;;;;6.80;2.87;;;;;;;;;;5195905;27;20562;-70
2024/04/24 18:34:22;;;;;;;7.73;2.90;;;;;;;;;;5210530;27;20573;-69
2024/04/24 18:36:47;;;;;;;4.20;2.93;;;;;;;;;;5210841;27;20956;-70
2024/04/24 18:39:14;;;;;;;3.70;2.77;;;;;;;;;;5203125;27;20476;-70
2024/04/24 18:41:40;;;;;;;8.93;3.30;;;;;;;;;;5208030;27;20670;-72
2024/04/24 18:44:06;;;;;;;5.40;3.17;;;;;;;;;;5177831;27;20470;-71
2024/04/24 18:46:32;;;;;;;15.70;4.03;;;;;;;;;;5182965;27;20527;-72
2024/04/24 18:48:58;;;;;;;5.00;3.20;;;;;;;;;;5200797;27;20900;-71
2024/04/24 18:51:24;;;;;;;6.00;3.30;;;;;;;;;;5208249;27;20449;-72
2024/04/24 18:53:50;;;;;;;5.90;3.60;;;;;;;;;;5176548;27;21064;-72
2024/04/24 18:56:16;;;;;;;7.40;3.37;;;;;;;;;;5175555;27;20559;-72
2024/04/24 18:58:42;;;;;;;6.33;4.10;;;;;;;;;;5198330;27;20519;-72
2024/04/24 19:01:08;;;;;;;5.30;3.30;;;;;;;;;;5187074;27;20818;-72
2024/04/24 19:03:34;;;;;;;5.43;3.13;;;;;;;;;;5176851;27;20531;-72
2024/04/24 19:06:00;;;;;;;5.80;2.90;;;;;;;;;;5175378;27;21281;-70
2024/04/24 19:08:26;;;;;;;8.27;3.40;;;;;;;;;;5196402;27;20477;-71
2024/04/24 19:10:54;;;;;;;9.27;2.60;;;;;;;;;;5178484;27;20826;-72
2024/04/24 19:13:20;;;;;;;8.57;3.13;;;;;;;;;;5183374;27;20517;-71
2024/04/24 19:15:46;;;;;;;3.80;2.60;;;;;;;;;;5186014;27;20478;-72
2024/04/24 19:18:14;;;;;;;6.27;2.80;;;;;;;;;;5176662;27;20506;-72
2024/04/24 19:20:43;;;;;;;3.80;2.60;;;;;;;;;;5185505;27;20446;-72
2024/04/24 19:23:09;;;;;;;2.80;2.43;;;;;;;;;;5200075;27;20509;-71
2024/04/24 19:25:35;;;;;;;4.43;2.97;;;;;;;;;;5190332;27;20482;-71
2024/04/24 19:28:03;;;;;;;12.33;3.03;;;;;;;;;;5176361;27;20549;-71
2024/04/24 19:30:29;;;;;;;5.80;3.10;;;;;;;;;;5196044;27;20535;-71
2024/04/24 19:32:55;;;;;;;5.83;3.50;;;;;;;;;;5206879;27;20461;-71
2024/04/24 19:35:21;;;;;;;7.20;3.60;;;;;;;;;;5208533;27;20473;-71